Belle Chasse — WDG2912 — position and weather

sailwx.info

Track history (hours):
 
Tides and Currents Weather Stations Pressure Air Temp Water Temp Dewpoint Dewpoint Depression Visibility Wind Speed Wind Dir Waves Ship Positions

Belle Chasse

Owner: Higman Barge Lines, Inc, Orange, TX. More information available from US FCC via Universal Licensing System and Coast Guard Vessel Documentation Center.

Last reported at 2016-May-01 11:25 UTC. Time now 2016-May-01 19:20 UTC.
Position N 29°45' W 095°06'.

Length 26 m; draft 3 m.

Type: Towing. MMSI: 367520550.

Date/timePositionNaut miles runAvg speedWind from/ knotsBaromVisibWave heightAir tempDewpointWater temp
2016-May-01 11:25N 29°45' W 095°06'2 0.2
2016-May-01 02:29N 29°44' W 095°08'0 0.0
2016-Apr-29 22:29N 29°44' W 095°08'5 5.2
2016-Apr-29 21:33N 29°48' W 095°04'0 0.1
2016-Apr-29 20:29N 29°48' W 095°04'0 0.0
2016-Apr-29 18:23N 29°48' W 095°04'0 0.0
2016-Apr-29 17:17N 29°48' W 095°04'0 0.0
2016-Apr-29 16:29N 29°48' W 095°04'0 0.0
2016-Apr-29 15:32N 29°48' W 095°04'0 0.0
2016-Apr-29 14:20N 29°48' W 095°04'1 0.1
2016-Apr-29 01:26N 29°46' W 095°05'1 0.9
2016-Apr-29 00:20N 29°47' W 095°05'0 0.0
2016-Apr-28 23:32N 29°47' W 095°05'2 2.2
2016-Apr-28 22:32N 29°46' W 095°06'2 1.2
2016-Apr-28 21:15N 29°46' W 095°05'3 4.1
2016-Apr-28 20:33N 29°44' W 095°03'6 5.6
2016-Apr-28 19:33N 29°40' W 094°58'6 6.2
2016-Apr-28 18:33N 29°34' W 094°55'7 6.7
2016-Apr-28 17:32N 29°28' W 094°51'6 4.9
2016-Apr-28 16:15N 29°22' W 094°50'4 0.2
2016-Apr-27 16:24N 29°22' W 094°55'0 0.0
2016-Apr-27 15:27N 29°22' W 094°55'0 0.0
2016-Apr-27 06:32N 29°22' W 094°55'0 0.0
2016-Apr-27 05:29N 29°22' W 094°55'0 0.0
2016-Apr-27 04:30N 29°22' W 094°55'0 0.0
2016-Apr-27 03:32N 29°22' W 094°55'0 0.0
2016-Apr-27 02:32N 29°22' W 094°55'0 0.0
2016-Apr-27 01:26N 29°22' W 094°55'0 0.0
2016-Apr-27 00:15N 29°22' W 094°55'0 0.0
2016-Apr-26 23:14N 29°22' W 094°55'0 0.0
2016-Apr-26 22:32N 29°22' W 094°55'0 0.0
2016-Apr-26 21:27N 29°22' W 094°55'  
2016-Apr-23 12:32N 29°25' W 094°44'  
Track history (hours):
 
Tides and Currents Weather Stations Pressure Air Temp Water Temp Dewpoint Dewpoint Depression Visibility Wind Speed Wind Dir Waves Ship Positions

Belle Chasse

Owner: Higman Barge Lines, Inc, Orange, TX. More information available from US FCC via Universal Licensing System and Coast Guard Vessel Documentation Center.

Last reported at 2016-May-01 11:25 UTC. Time now 2016-May-01 19:20 UTC.
Position N 29°45' W 095°06'.

Length 26 m; draft 3 m.

Type: Towing. MMSI: 367520550.

Date/timePositionNaut miles runAvg speedWind from/ knotsBaromVisibWave heightAir tempDewpointWater temp
2016-May-01 11:25N 29°45' W 095°06'2 0.2
2016-May-01 02:29N 29°44' W 095°08'0 0.0
2016-Apr-29 22:29N 29°44' W 095°08'5 5.2
2016-Apr-29 21:33N 29°48' W 095°04'0 0.1
2016-Apr-29 20:29N 29°48' W 095°04'0 0.0
2016-Apr-29 18:23N 29°48' W 095°04'0 0.0
2016-Apr-29 17:17N 29°48' W 095°04'0 0.0
2016-Apr-29 16:29N 29°48' W 095°04'0 0.0
2016-Apr-29 15:32N 29°48' W 095°04'0 0.0
2016-Apr-29 14:20N 29°48' W 095°04'1 0.1
2016-Apr-29 01:26N 29°46' W 095°05'1 0.9
2016-Apr-29 00:20N 29°47' W 095°05'0 0.0
2016-Apr-28 23:32N 29°47' W 095°05'2 2.2
2016-Apr-28 22:32N 29°46' W 095°06'2 1.2
2016-Apr-28 21:15N 29°46' W 095°05'3 4.1
2016-Apr-28 20:33N 29°44' W 095°03'6 5.6
2016-Apr-28 19:33N 29°40' W 094°58'6 6.2
2016-Apr-28 18:33N 29°34' W 094°55'7 6.7
2016-Apr-28 17:32N 29°28' W 094°51'6 4.9
2016-Apr-28 16:15N 29°22' W 094°50'4 0.2
2016-Apr-27 16:24N 29°22' W 094°55'0 0.0
2016-Apr-27 15:27N 29°22' W 094°55'0 0.0
2016-Apr-27 06:32N 29°22' W 094°55'0 0.0
2016-Apr-27 05:29N 29°22' W 094°55'0 0.0
2016-Apr-27 04:30N 29°22' W 094°55'0 0.0
2016-Apr-27 03:32N 29°22' W 094°55'0 0.0
2016-Apr-27 02:32N 29°22' W 094°55'0 0.0
2016-Apr-27 01:26N 29°22' W 094°55'0 0.0
2016-Apr-27 00:15N 29°22' W 094°55'0 0.0
2016-Apr-26 23:14N 29°22' W 094°55'0 0.0
2016-Apr-26 22:32N 29°22' W 094°55'0 0.0
2016-Apr-26 21:27N 29°22' W 094°55'  
2016-Apr-23 12:32N 29°25' W 094°44'  

Dump ship's entire track history